sensor_id;sensor_type;location;lat;lon;timestamp;P1;durP1;ratioP1;P2;durP2;ratioP2
16878;SDS011;8556;52.218;9.884;2024-03-23T00:55:54;10.87;;;4.00;;
16878;SDS011;8556;52.218;9.884;2024-03-23T00:58:21;10.07;;;3.80;;
16878;SDS011;8556;52.218;9.884;2024-03-23T01:00:47;10.83;;;4.60;;
16878;SDS011;8556;52.218;9.884;2024-03-23T01:03:14;10.70;;;4.20;;
16878;SDS011;8556;52.218;9.884;2024-03-23T01:05:40;9.93;;;3.97;;
16878;SDS011;8556;52.218;9.884;2024-03-23T01:08:07;8.83;;;3.80;;
16878;SDS011;8556;52.218;9.884;2024-03-23T01:10:33;12.77;;;4.43;;
16878;SDS011;8556;52.218;9.884;2024-03-23T01:13:01;11.00;;;4.30;;
16878;SDS011;8556;52.218;9.884;2024-03-23T01:15:27;8.67;;;3.93;;
16878;SDS011;8556;52.218;9.884;2024-03-23T01:17:54;13.47;;;4.50;;
16878;SDS011;8556;52.218;9.884;2024-03-23T01:20:20;10.07;;;3.80;;
16878;SDS011;8556;52.218;9.884;2024-03-23T01:22:47;12.50;;;4.00;;
16878;SDS011;8556;52.218;9.884;2024-03-23T01:25:12;11.07;;;4.20;;
16878;SDS011;8556;52.218;9.884;2024-03-23T01:27:39;9.87;;;4.00;;
16878;SDS011;8556;52.218;9.884;2024-03-23T01:30:07;14.47;;;4.60;;
16878;SDS011;8556;52.218;9.884;2024-03-23T01:32:34;8.83;;;3.97;;
16878;SDS011;8556;52.218;9.884;2024-03-23T01:35:00;9.13;;;3.70;;
16878;SDS011;8556;52.218;9.884;2024-03-23T01:37:29;9.90;;;4.03;;
16878;SDS011;8556;52.218;9.884;2024-03-23T01:39:55;10.30;;;3.87;;
16878;SDS011;8556;52.218;9.884;2024-03-23T01:42:21;12.30;;;4.70;;
16878;SDS011;8556;52.218;9.884;2024-03-23T01:44:47;11.10;;;4.30;;
16878;SDS011;8556;52.218;9.884;2024-03-23T01:47:16;12.13;;;4.17;;
16878;SDS011;8556;52.218;9.884;2024-03-23T01:49:42;12.23;;;4.10;;
16878;SDS011;8556;52.218;9.884;2024-03-23T01:52:09;14.40;;;4.47;;
16878;SDS011;8556;52.218;9.884;2024-03-23T01:54:35;14.23;;;4.77;;
16878;SDS011;8556;52.218;9.884;2024-03-23T01:57:02;10.07;;;4.23;;
16878;SDS011;8556;52.218;9.884;2024-03-23T01:59:29;10.47;;;4.20;;
16878;SDS011;8556;52.218;9.884;2024-03-23T02:01:56;9.10;;;4.10;;
16878;SDS011;8556;52.218;9.884;2024-03-23T02:04:23;9.87;;;3.77;;
16878;SDS011;8556;52.218;9.884;2024-03-23T02:06:51;11.80;;;3.80;;
16878;SDS011;8556;52.218;9.884;2024-03-23T02:09:17;14.37;;;4.63;;
16878;SDS011;8556;52.218;9.884;2024-03-23T02:11:44;11.83;;;4.00;;
16878;SDS011;8556;52.218;9.884;2024-03-23T02:14:10;11.10;;;3.77;;
16878;SDS011;8556;52.218;9.884;2024-03-23T02:16:37;11.00;;;4.67;;
16878;SDS011;8556;52.218;9.884;2024-03-23T02:19:03;9.87;;;4.03;;
16878;SDS011;8556;52.218;9.884;2024-03-23T02:21:31;15.13;;;4.37;;
16878;SDS011;8556;52.218;9.884;2024-03-23T02:23:59;14.73;;;4.27;;
16878;SDS011;8556;52.218;9.884;2024-03-23T02:26:26;13.80;;;4.50;;
16878;SDS011;8556;52.218;9.884;2024-03-23T02:28:52;10.80;;;4.37;;
16878;SDS011;8556;52.218;9.884;2024-03-23T02:31:19;10.70;;;3.77;;
16878;SDS011;8556;52.218;9.884;2024-03-23T02:33:45;13.50;;;4.13;;
16878;SDS011;8556;52.218;9.884;2024-03-23T02:36:12;15.47;;;4.70;;
16878;SDS011;8556;52.218;9.884;2024-03-23T02:38:38;9.90;;;4.17;;
16878;SDS011;8556;52.218;9.884;2024-03-23T02:41:06;11.37;;;3.77;;
16878;SDS011;8556;52.218;9.884;2024-03-23T02:43:32;12.87;;;4.37;;
16878;SDS011;8556;52.218;9.884;2024-03-23T02:45:59;8.07;;;4.40;;
16878;SDS011;8556;52.218;9.884;2024-03-23T02:48:28;11.53;;;3.33;;
16878;SDS011;8556;52.218;9.884;2024-03-23T02:50:53;13.67;;;3.93;;
16878;SDS011;8556;52.218;9.884;2024-03-23T02:53:20;6.43;;;2.97;;
16878;SDS011;8556;52.218;9.884;2024-03-23T02:55:46;11.40;;;3.13;;
16878;SDS011;8556;52.218;9.884;2024-03-23T02:58:14;9.27;;;3.33;;
16878;SDS011;8556;52.218;9.884;2024-03-23T03:00:40;9.00;;;3.13;;
16878;SDS011;8556;52.218;9.884;2024-03-23T03:03:07;10.90;;;3.67;;
16878;SDS011;8556;52.218;9.884;2024-03-23T03:05:34;11.03;;;3.77;;
16878;SDS011;8556;52.218;9.884;2024-03-23T03:08:00;9.97;;;4.03;;
16878;SDS011;8556;52.218;9.884;2024-03-23T03:10:26;10.77;;;3.80;;
16878;SDS011;8556;52.218;9.884;2024-03-23T03:12:54;9.57;;;3.73;;
16878;SDS011;8556;52.218;9.884;2024-03-23T03:15:21;12.43;;;3.87;;
16878;SDS011;8556;52.218;9.884;2024-03-23T03:17:48;10.47;;;3.70;;
16878;SDS011;8556;52.218;9.884;2024-03-23T03:20:14;12.30;;;4.03;;
16878;SDS011;8556;52.218;9.884;2024-03-23T03:22:42;10.30;;;3.50;;
16878;SDS011;8556;52.218;9.884;2024-03-23T03:25:08;10.27;;;4.07;;
16878;SDS011;8556;52.218;9.884;2024-03-23T03:27:35;9.93;;;3.53;;
16878;SDS011;8556;52.218;9.884;2024-03-23T03:30:01;8.73;;;3.93;;
16878;SDS011;8556;52.218;9.884;2024-03-23T03:32:32;9.13;;;3.87;;
16878;SDS011;8556;52.218;9.884;2024-03-23T03:34:58;12.63;;;4.27;;
16878;SDS011;8556;52.218;9.884;2024-03-23T03:37:25;9.33;;;3.90;;
16878;SDS011;8556;52.218;9.884;2024-03-23T03:39:51;11.80;;;5.77;;
16878;SDS011;8556;52.218;9.884;2024-03-23T03:42:18;15.17;;;4.60;;
16878;SDS011;8556;52.218;9.884;2024-03-23T03:44:44;9.40;;;4.53;;
16878;SDS011;8556;52.218;9.884;2024-03-23T03:47:10;11.90;;;4.80;;
16878;SDS011;8556;52.218;9.884;2024-03-23T03:49:38;11.90;;;5.00;;
16878;SDS011;8556;52.218;9.884;2024-03-23T03:52:05;13.93;;;5.47;;
16878;SDS011;8556;52.218;9.884;2024-03-23T03:54:31;10.70;;;4.67;;
16878;SDS011;8556;52.218;9.884;2024-03-23T03:56:59;13.23;;;5.83;;
16878;SDS011;8556;52.218;9.884;2024-03-23T03:59:25;12.93;;;4.90;;
16878;SDS011;8556;52.218;9.884;2024-03-23T04:01:52;14.57;;;4.83;;
16878;SDS011;8556;52.218;9.884;2024-03-23T04:04:18;15.97;;;5.73;;
16878;SDS011;8556;52.218;9.884;2024-03-23T04:06:47;11.00;;;4.10;;
16878;SDS011;8556;52.218;9.884;2024-03-23T04:09:12;9.77;;;3.90;;
16878;SDS011;8556;52.218;9.884;2024-03-23T04:11:40;11.80;;;4.20;;
16878;SDS011;8556;52.218;9.884;2024-03-23T04:14:06;9.50;;;4.23;;
16878;SDS011;8556;52.218;9.884;2024-03-23T04:16:33;11.03;;;3.73;;
16878;SDS011;8556;52.218;9.884;2024-03-23T04:19:00;10.50;;;4.07;;
16878;SDS011;8556;52.218;9.884;2024-03-23T04:21:27;12.20;;;3.80;;
16878;SDS011;8556;52.218;9.884;2024-03-23T04:23:54;11.20;;;4.20;;
16878;SDS011;8556;52.218;9.884;2024-03-23T04:26:21;15.17;;;7.40;;
16878;SDS011;8556;52.218;9.884;2024-03-23T04:28:47;11.20;;;3.83;;
16878;SDS011;8556;52.218;9.884;2024-03-23T04:31:14;9.07;;;3.63;;
16878;SDS011;8556;52.218;9.884;2024-03-23T04:33:40;9.00;;;4.03;;
16878;SDS011;8556;52.218;9.884;2024-03-23T04:36:07;7.07;;;3.13;;
16878;SDS011;8556;52.218;9.884;2024-03-23T04:38:33;7.23;;;3.40;;
16878;SDS011;8556;52.218;9.884;2024-03-23T04:41:01;7.93;;;3.43;;
16878;SDS011;8556;52.218;9.884;2024-03-23T04:43:28;6.27;;;3.27;;
16878;SDS011;8556;52.218;9.884;2024-03-23T04:45:55;9.70;;;3.70;;
16878;SDS011;8556;52.218;9.884;2024-03-23T04:48:22;9.97;;;3.00;;
16878;SDS011;8556;52.218;9.884;2024-03-23T04:50:54;10.37;;;3.70;;
16878;SDS011;8556;52.218;9.884;2024-03-23T04:53:22;15.80;;;5.03;;
16878;SDS011;8556;52.218;9.884;2024-03-23T04:55:53;8.80;;;3.40;;
16878;SDS011;8556;52.218;9.884;2024-03-23T04:58:20;9.67;;;2.40;;
16878;SDS011;8556;52.218;9.884;2024-03-23T05:00:48;8.60;;;2.97;;
16878;SDS011;8556;52.218;9.884;2024-03-23T05:03:18;12.73;;;4.90;;
16878;SDS011;8556;52.218;9.884;2024-03-23T05:05:46;9.83;;;3.53;;
16878;SDS011;8556;52.218;9.884;2024-03-23T05:08:12;9.50;;;2.87;;
16878;SDS011;8556;52.218;9.884;2024-03-23T05:10:39;6.47;;;2.83;;
16878;SDS011;8556;52.218;9.884;2024-03-23T05:13:06;12.10;;;3.77;;
16878;SDS011;8556;52.218;9.884;2024-03-23T05:15:34;8.90;;;3.30;;
16878;SDS011;8556;52.218;9.884;2024-03-23T05:18:00;11.43;;;3.10;;
16878;SDS011;8556;52.218;9.884;2024-03-23T05:20:27;14.13;;;3.47;;
16878;SDS011;8556;52.218;9.884;2024-03-23T05:22:54;13.87;;;3.50;;
16878;SDS011;8556;52.218;9.884;2024-03-23T05:25:21;7.53;;;2.83;;
16878;SDS011;8556;52.218;9.884;2024-03-23T05:27:48;9.03;;;3.33;;
16878;SDS011;8556;52.218;9.884;2024-03-23T05:30:15;5.50;;;3.17;;
16878;SDS011;8556;52.218;9.884;2024-03-23T05:32:42;6.90;;;2.73;;
16878;SDS011;8556;52.218;9.884;2024-03-23T05:35:09;9.30;;;3.30;;
16878;SDS011;8556;52.218;9.884;2024-03-23T05:37:35;10.07;;;3.50;;
16878;SDS011;8556;52.218;9.884;2024-03-23T05:40:03;8.07;;;3.30;;
16878;SDS011;8556;52.218;9.884;2024-03-23T05:42:29;11.23;;;3.30;;
16878;SDS011;8556;52.218;9.884;2024-03-23T05:44:56;7.47;;;2.93;;
16878;SDS011;8556;52.218;9.884;2024-03-23T05:47:22;11.67;;;3.30;;
16878;SDS011;8556;52.218;9.884;2024-03-23T05:49:51;12.13;;;3.07;;
16878;SDS011;8556;52.218;9.884;2024-03-23T05:52:17;8.97;;;3.17;;
16878;SDS011;8556;52.218;9.884;2024-03-23T05:54:46;8.23;;;3.20;;
16878;SDS011;8556;52.218;9.884;2024-03-23T05:57:12;11.67;;;3.40;;
16878;SDS011;8556;52.218;9.884;2024-03-23T05:59:39;8.23;;;2.50;;
16878;SDS011;8556;52.218;9.884;2024-03-23T06:02:05;11.90;;;2.13;;
16878;SDS011;8556;52.218;9.884;2024-03-23T06:04:32;7.80;;;2.60;;
16878;SDS011;8556;52.218;9.884;2024-03-23T06:06:59;10.73;;;3.10;;
16878;SDS011;8556;52.218;9.884;2024-03-23T06:09:26;6.33;;;1.80;;
16878;SDS011;8556;52.218;9.884;2024-03-23T06:11:56;6.07;;;1.50;;
16878;SDS011;8556;52.218;9.884;2024-03-23T06:14:22;6.73;;;2.00;;
16878;SDS011;8556;52.218;9.884;2024-03-23T06:16:49;9.03;;;1.80;;
16878;SDS011;8556;52.218;9.884;2024-03-23T06:19:15;13.97;;;2.30;;
16878;SDS011;8556;52.218;9.884;2024-03-23T06:21:43;9.37;;;2.33;;
16878;SDS011;8556;52.218;9.884;2024-03-23T06:24:10;7.47;;;1.90;;
16878;SDS011;8556;52.218;9.884;2024-03-23T06:26:37;8.47;;;2.10;;
16878;SDS011;8556;52.218;9.884;2024-03-23T06:29:03;9.20;;;1.90;;
16878;SDS011;8556;52.218;9.884;2024-03-23T06:31:31;8.00;;;1.87;;
16878;SDS011;8556;52.218;9.884;2024-03-23T06:33:57;15.93;;;4.87;;
16878;SDS011;8556;52.218;9.884;2024-03-23T06:36:24;15.03;;;3.60;;
16878;SDS011;8556;52.218;9.884;2024-03-23T06:38:50;10.93;;;3.00;;
16878;SDS011;8556;52.218;9.884;2024-03-23T06:41:19;8.27;;;4.03;;
16878;SDS011;8556;52.218;9.884;2024-03-23T06:43:45;10.70;;;2.57;;
16878;SDS011;8556;52.218;9.884;2024-03-23T06:46:12;11.97;;;3.07;;
16878;SDS011;8556;52.218;9.884;2024-03-23T06:48:37;10.30;;;3.43;;
16878;SDS011;8556;52.218;9.884;2024-03-23T06:51:04;6.53;;;2.53;;
16878;SDS011;8556;52.218;9.884;2024-03-23T06:53:31;8.33;;;2.27;;
16878;SDS011;8556;52.218;9.884;2024-03-23T06:55:58;9.70;;;2.30;;
16878;SDS011;8556;52.218;9.884;2024-03-23T06:58:27;11.77;;;2.50;;
16878;SDS011;8556;52.218;9.884;2024-03-23T07:00:54;12.53;;;2.67;;
16878;SDS011;8556;52.218;9.884;2024-03-23T07:03:20;7.87;;;2.40;;
16878;SDS011;8556;52.218;9.884;2024-03-23T07:05:47;11.10;;;2.20;;
16878;SDS011;8556;52.218;9.884;2024-03-23T07:08:13;14.03;;;5.03;;
16878;SDS011;8556;52.218;9.884;2024-03-23T07:10:46;17.93;;;7.50;;
16878;SDS011;8556;52.218;9.884;2024-03-23T07:13:12;10.50;;;2.80;;
16878;SDS011;8556;52.218;9.884;2024-03-23T07:15:40;9.07;;;2.03;;
16878;SDS011;8556;52.218;9.884;2024-03-23T07:18:06;11.87;;;2.70;;
16878;SDS011;8556;52.218;9.884;2024-03-23T07:20:33;9.00;;;2.10;;
16878;SDS011;8556;52.218;9.884;2024-03-23T07:22:59;7.87;;;3.60;;
16878;SDS011;8556;52.218;9.884;2024-03-23T07:25:26;9.83;;;2.80;;
16878;SDS011;8556;52.218;9.884;2024-03-23T07:27:54;9.50;;;3.07;;
16878;SDS011;8556;52.218;9.884;2024-03-23T07:30:21;11.10;;;2.50;;
16878;SDS011;8556;52.218;9.884;2024-03-23T07:32:48;10.03;;;2.43;;
16878;SDS011;8556;52.218;9.884;2024-03-23T07:35:15;10.10;;;2.30;;
16878;SDS011;8556;52.218;9.884;2024-03-23T07:37:41;19.57;;;4.90;;
16878;SDS011;8556;52.218;9.884;2024-03-23T07:40:09;6.17;;;2.30;;
16878;SDS011;8556;52.218;9.884;2024-03-23T07:42:36;7.20;;;2.43;;
16878;SDS011;8556;52.218;9.884;2024-03-23T07:45:04;8.87;;;2.27;;
16878;SDS011;8556;52.218;9.884;2024-03-23T07:47:30;11.37;;;2.87;;
16878;SDS011;8556;52.218;9.884;2024-03-23T07:49:58;10.20;;;3.40;;
16878;SDS011;8556;52.218;9.884;2024-03-23T07:52:27;9.23;;;2.40;;
16878;SDS011;8556;52.218;9.884;2024-03-23T07:54:54;12.50;;;3.03;;
16878;SDS011;8556;52.218;9.884;2024-03-23T07:57:20;9.67;;;2.70;;
16878;SDS011;8556;52.218;9.884;2024-03-23T07:59:47;13.43;;;3.50;;
16878;SDS011;8556;52.218;9.884;2024-03-23T08:02:13;10.97;;;3.27;;
16878;SDS011;8556;52.218;9.884;2024-03-23T08:04:40;8.37;;;3.20;;
16878;SDS011;8556;52.218;9.884;2024-03-23T08:07:07;10.07;;;2.73;;
16878;SDS011;8556;52.218;9.884;2024-03-23T08:09:34;7.40;;;2.97;;
16878;SDS011;8556;52.218;9.884;2024-03-23T08:12:00;6.80;;;2.83;;
16878;SDS011;8556;52.218;9.884;2024-03-23T08:14:28;8.10;;;3.03;;
16878;SDS011;8556;52.218;9.884;2024-03-23T08:16:54;10.63;;;3.20;;
16878;SDS011;8556;52.218;9.884;2024-03-23T08:19:21;9.03;;;3.20;;
16878;SDS011;8556;52.218;9.884;2024-03-23T08:21:47;6.70;;;3.60;;
16878;SDS011;8556;52.218;9.884;2024-03-23T08:24:16;13.70;;;4.87;;
16878;SDS011;8556;52.218;9.884;2024-03-23T08:26:42;15.40;;;5.23;;
16878;SDS011;8556;52.218;9.884;2024-03-23T08:29:09;19.40;;;7.60;;
16878;SDS011;8556;52.218;9.884;2024-03-23T08:31:35;17.43;;;6.33;;
16878;SDS011;8556;52.218;9.884;2024-03-23T08:34:02;12.30;;;5.73;;
16878;SDS011;8556;52.218;9.884;2024-03-23T08:36:28;15.70;;;5.50;;
16878;SDS011;8556;52.218;9.884;2024-03-23T08:38:55;15.30;;;5.33;;
16878;SDS011;8556;52.218;9.884;2024-03-23T08:41:23;19.90;;;6.57;;
16878;SDS011;8556;52.218;9.884;2024-03-23T08:43:50;20.27;;;7.67;;
16878;SDS011;8556;52.218;9.884;2024-03-23T08:46:16;18.90;;;7.53;;
16878;SDS011;8556;52.218;9.884;2024-03-23T08:48:44;20.87;;;7.70;;
16878;SDS011;8556;52.218;9.884;2024-03-23T08:51:11;20.90;;;7.93;;
16878;SDS011;8556;52.218;9.884;2024-03-23T08:53:39;25.63;;;8.10;;
16878;SDS011;8556;52.218;9.884;2024-03-23T08:56:06;22.33;;;7.70;;
16878;SDS011;8556;52.218;9.884;2024-03-23T08:58:35;22.27;;;8.10;;
16878;SDS011;8556;52.218;9.884;2024-03-23T09:01:03;15.57;;;7.17;;
16878;SDS011;8556;52.218;9.884;2024-03-23T09:03:31;16.07;;;6.30;;
16878;SDS011;8556;52.218;9.884;2024-03-23T09:05:57;15.10;;;6.10;;
16878;SDS011;8556;52.218;9.884;2024-03-23T09:08:24;21.17;;;6.70;;
16878;SDS011;8556;52.218;9.884;2024-03-23T09:10:51;14.57;;;5.40;;
16878;SDS011;8556;52.218;9.884;2024-03-23T09:13:18;16.27;;;5.77;;
16878;SDS011;8556;52.218;9.884;2024-03-23T09:15:49;16.03;;;5.87;;
16878;SDS011;8556;52.218;9.884;2024-03-23T09:18:19;15.03;;;5.13;;
16878;SDS011;8556;52.218;9.884;2024-03-23T09:20:45;12.50;;;5.23;;
16878;SDS011;8556;52.218;9.884;2024-03-23T09:23:12;13.67;;;4.53;;
16878;SDS011;8556;52.218;9.884;2024-03-23T09:25:38;11.50;;;4.73;;
16878;SDS011;8556;52.218;9.884;2024-03-23T09:28:05;14.87;;;4.97;;
16878;SDS011;8556;52.218;9.884;2024-03-23T09:30:33;17.57;;;6.07;;
16878;SDS011;8556;52.218;9.884;2024-03-23T09:33:02;16.83;;;5.97;;
16878;SDS011;8556;52.218;9.884;2024-03-23T09:35:28;17.40;;;5.70;;
16878;SDS011;8556;52.218;9.884;2024-03-23T09:37:55;14.87;;;5.33;;
16878;SDS011;8556;52.218;9.884;2024-03-23T09:40:22;14.43;;;5.30;;
16878;SDS011;8556;52.218;9.884;2024-03-23T09:42:49;11.90;;;4.83;;
16878;SDS011;8556;52.218;9.884;2024-03-23T09:45:17;15.97;;;5.23;;
16878;SDS011;8556;52.218;9.884;2024-03-23T09:47:47;15.13;;;5.03;;
16878;SDS011;8556;52.218;9.884;2024-03-23T09:50:16;14.70;;;4.50;;
16878;SDS011;8556;52.218;9.884;2024-03-23T09:52:43;15.73;;;5.57;;
16878;SDS011;8556;52.218;9.884;2024-03-23T09:55:10;21.83;;;5.63;;
16878;SDS011;8556;52.218;9.884;2024-03-23T09:57:39;13.43;;;5.37;;
16878;SDS011;8556;52.218;9.884;2024-03-23T10:00:05;13.47;;;4.77;;
16878;SDS011;8556;52.218;9.884;2024-03-23T10:02:33;13.90;;;4.03;;
16878;SDS011;8556;52.218;9.884;2024-03-23T10:04:59;14.33;;;3.43;;
16878;SDS011;8556;52.218;9.884;2024-03-23T10:07:28;10.93;;;3.50;;
16878;SDS011;8556;52.218;9.884;2024-03-23T10:09:54;12.27;;;4.07;;
16878;SDS011;8556;52.218;9.884;2024-03-23T10:12:23;14.47;;;4.43;;
16878;SDS011;8556;52.218;9.884;2024-03-23T10:14:49;10.40;;;3.43;;
16878;SDS011;8556;52.218;9.884;2024-03-23T10:17:17;11.20;;;3.87;;
16878;SDS011;8556;52.218;9.884;2024-03-23T10:19:43;11.00;;;3.70;;
16878;SDS011;8556;52.218;9.884;2024-03-23T10:22:13;10.27;;;4.10;;
16878;SDS011;8556;52.218;9.884;2024-03-23T10:24:43;11.27;;;4.20;;
16878;SDS011;8556;52.218;9.884;2024-03-23T10:27:12;12.23;;;4.70;;
16878;SDS011;8556;52.218;9.884;2024-03-23T10:29:41;11.77;;;4.57;;
16878;SDS011;8556;52.218;9.884;2024-03-23T10:32:09;10.40;;;3.97;;
16878;SDS011;8556;52.218;9.884;2024-03-23T10:34:36;15.17;;;4.00;;
16878;SDS011;8556;52.218;9.884;2024-03-23T10:37:03;14.53;;;5.10;;
16878;SDS011;8556;52.218;9.884;2024-03-23T10:39:33;16.43;;;5.80;;
16878;SDS011;8556;52.218;9.884;2024-03-23T10:42:06;16.50;;;7.33;;
16878;SDS011;8556;52.218;9.884;2024-03-23T10:44:33;17.23;;;6.97;;
16878;SDS011;8556;52.218;9.884;2024-03-23T10:47:00;10.40;;;3.80;;
16878;SDS011;8556;52.218;9.884;2024-03-23T10:49:27;10.23;;;4.53;;
16878;SDS011;8556;52.218;9.884;2024-03-23T10:51:58;14.10;;;5.00;;
16878;SDS011;8556;52.218;9.884;2024-03-23T10:54:25;15.43;;;4.43;;
16878;SDS011;8556;52.218;9.884;2024-03-23T10:56:54;5.37;;;2.53;;
16878;SDS011;8556;52.218;9.884;2024-03-23T10:59:26;7.80;;;2.40;;
16878;SDS011;8556;52.218;9.884;2024-03-23T11:01:55;6.57;;;2.60;;
16878;SDS011;8556;52.218;9.884;2024-03-23T11:04:31;6.10;;;3.07;;
16878;SDS011;8556;52.218;9.884;2024-03-23T11:06:59;4.50;;;2.50;;
16878;SDS011;8556;52.218;9.884;2024-03-23T11:09:38;8.17;;;3.00;;
16878;SDS011;8556;52.218;9.884;2024-03-23T11:12:25;6.33;;;2.47;;
16878;SDS011;8556;52.218;9.884;2024-03-23T11:14:59;5.93;;;2.80;;
16878;SDS011;8556;52.218;9.884;2024-03-23T11:17:28;11.33;;;3.47;;
16878;SDS011;8556;52.218;9.884;2024-03-23T11:19:54;4.80;;;3.00;;
16878;SDS011;8556;52.218;9.884;2024-03-23T11:22:38;6.70;;;3.20;;
16878;SDS011;8556;52.218;9.884;2024-03-23T11:25:16;7.47;;;3.93;;
16878;SDS011;8556;52.218;9.884;2024-03-23T11:27:43;10.37;;;3.80;;
16878;SDS011;8556;52.218;9.884;2024-03-23T11:30:13;8.27;;;3.90;;
16878;SDS011;8556;52.218;9.884;2024-03-23T11:32:41;9.50;;;3.70;;
16878;SDS011;8556;52.218;9.884;2024-03-23T11:35:08;9.87;;;3.70;;
16878;SDS011;8556;52.218;9.884;2024-03-23T11:37:35;5.53;;;3.30;;
16878;SDS011;8556;52.218;9.884;2024-03-23T11:40:18;5.60;;;3.00;;
16878;SDS011;8556;52.218;9.884;2024-03-23T11:42:45;5.93;;;2.63;;
16878;SDS011;8556;52.218;9.884;2024-03-23T11:45:14;6.77;;;3.00;;
16878;SDS011;8556;52.218;9.884;2024-03-23T11:47:41;7.20;;;3.77;;
16878;SDS011;8556;52.218;9.884;2024-03-23T11:50:08;5.50;;;3.03;;
16878;SDS011;8556;52.218;9.884;2024-03-23T11:52:35;5.63;;;3.07;;
16878;SDS011;8556;52.218;9.884;2024-03-23T11:55:05;6.83;;;3.50;;
16878;SDS011;8556;52.218;9.884;2024-03-23T11:57:33;7.40;;;3.40;;
16878;SDS011;8556;52.218;9.884;2024-03-23T12:00:00;7.00;;;3.10;;
16878;SDS011;8556;52.218;9.884;2024-03-23T12:02:27;7.23;;;2.90;;
16878;SDS011;8556;52.218;9.884;2024-03-23T12:04:55;10.97;;;4.07;;
16878;SDS011;8556;52.218;9.884;2024-03-23T12:07:21;8.10;;;3.53;;
16878;SDS011;8556;52.218;9.884;2024-03-23T12:10:02;10.63;;;4.33;;
16878;SDS011;8556;52.218;9.884;2024-03-23T12:12:28;10.93;;;3.97;;
16878;SDS011;8556;52.218;9.884;2024-03-23T12:15:02;8.63;;;3.40;;
16878;SDS011;8556;52.218;9.884;2024-03-23T12:17:31;9.33;;;3.67;;
16878;SDS011;8556;52.218;9.884;2024-03-23T12:19:59;10.50;;;4.50;;
16878;SDS011;8556;52.218;9.884;2024-03-23T12:22:26;9.37;;;4.23;;
16878;SDS011;8556;52.218;9.884;2024-03-23T12:24:54;8.83;;;3.30;;
16878;SDS011;8556;52.218;9.884;2024-03-23T12:27:20;5.80;;;2.37;;
16878;SDS011;8556;52.218;9.884;2024-03-23T12:29:47;8.63;;;3.77;;
16878;SDS011;8556;52.218;9.884;2024-03-23T12:32:13;8.20;;;4.03;;
16878;SDS011;8556;52.218;9.884;2024-03-23T12:34:42;6.33;;;3.10;;
16878;SDS011;8556;52.218;9.884;2024-03-23T12:37:08;3.20;;;2.70;;
16878;SDS011;8556;52.218;9.884;2024-03-23T12:39:35;5.87;;;2.87;;
16878;SDS011;8556;52.218;9.884;2024-03-23T12:42:02;7.17;;;2.70;;
16878;SDS011;8556;52.218;9.884;2024-03-23T12:44:29;6.07;;;2.77;;
16878;SDS011;8556;52.218;9.884;2024-03-23T12:46:55;3.80;;;2.67;;
16878;SDS011;8556;52.218;9.884;2024-03-23T12:49:22;7.47;;;3.43;;
16878;SDS011;8556;52.218;9.884;2024-03-23T12:51:54;4.83;;;3.20;;
16878;SDS011;8556;52.218;9.884;2024-03-23T12:54:22;6.57;;;3.07;;
16878;SDS011;8556;52.218;9.884;2024-03-23T12:56:49;6.50;;;3.00;;
16878;SDS011;8556;52.218;9.884;2024-03-23T12:59:15;8.30;;;2.83;;
16878;SDS011;8556;52.218;9.884;2024-03-23T13:01:43;2.47;;;1.67;;
16878;SDS011;8556;52.218;9.884;2024-03-23T13:04:10;4.00;;;1.70;;
16878;SDS011;8556;52.218;9.884;2024-03-23T13:06:37;3.43;;;1.47;;
16878;SDS011;8556;52.218;9.884;2024-03-23T13:09:05;2.70;;;1.40;;
16878;SDS011;8556;52.218;9.884;2024-03-23T13:11:31;4.70;;;1.70;;
16878;SDS011;8556;52.218;9.884;2024-03-23T13:13:58;6.13;;;2.60;;
16878;SDS011;8556;52.218;9.884;2024-03-23T13:16:24;5.67;;;2.23;;
16878;SDS011;8556;52.218;9.884;2024-03-23T13:18:51;2.80;;;1.40;;
16878;SDS011;8556;52.218;9.884;2024-03-23T13:21:17;2.10;;;1.57;;
16878;SDS011;8556;52.218;9.884;2024-03-23T13:23:46;3.83;;;1.33;;
16878;SDS011;8556;52.218;9.884;2024-03-23T13:26:16;1.37;;;1.27;;
16878;SDS011;8556;52.218;9.884;2024-03-23T13:28:43;2.70;;;1.50;;
16878;SDS011;8556;52.218;9.884;2024-03-23T13:31:09;2.47;;;1.40;;
16878;SDS011;8556;52.218;9.884;2024-03-23T13:33:36;2.13;;;1.57;;
16878;SDS011;8556;52.218;9.884;2024-03-23T13:36:03;2.53;;;1.93;;
16878;SDS011;8556;52.218;9.884;2024-03-23T13:38:30;4.20;;;1.50;;
16878;SDS011;8556;52.218;9.884;2024-03-23T13:40:56;3.67;;;1.90;;
16878;SDS011;8556;52.218;9.884;2024-03-23T13:43:27;2.60;;;1.60;;
16878;SDS011;8556;52.218;9.884;2024-03-23T13:45:54;6.50;;;1.93;;
16878;SDS011;8556;52.218;9.884;2024-03-23T13:48:22;5.17;;;1.87;;
16878;SDS011;8556;52.218;9.884;2024-03-23T13:50:56;3.60;;;2.07;;
16878;SDS011;8556;52.218;9.884;2024-03-23T13:53:23;5.07;;;2.30;;
16878;SDS011;8556;52.218;9.884;2024-03-23T13:55:49;2.90;;;2.23;;
16878;SDS011;8556;52.218;9.884;2024-03-23T13:58:16;2.80;;;2.00;;
16878;SDS011;8556;52.218;9.884;2024-03-23T14:00:44;5.97;;;3.20;;
16878;SDS011;8556;52.218;9.884;2024-03-23T14:03:11;7.47;;;2.40;;
16878;SDS011;8556;52.218;9.884;2024-03-23T14:05:38;7.13;;;2.40;;
16878;SDS011;8556;52.218;9.884;2024-03-23T14:08:05;2.77;;;2.27;;
16878;SDS011;8556;52.218;9.884;2024-03-23T14:10:32;7.17;;;3.60;;
16878;SDS011;8556;52.218;9.884;2024-03-23T14:12:59;5.23;;;2.60;;
16878;SDS011;8556;52.218;9.884;2024-03-23T14:15:25;5.63;;;2.30;;
16878;SDS011;8556;52.218;9.884;2024-03-23T14:17:53;5.57;;;2.60;;
16878;SDS011;8556;52.218;9.884;2024-03-23T14:20:19;5.00;;;2.30;;
16878;SDS011;8556;52.218;9.884;2024-03-23T14:22:46;6.17;;;2.90;;
16878;SDS011;8556;52.218;9.884;2024-03-23T14:25:12;4.17;;;2.57;;
16878;SDS011;8556;52.218;9.884;2024-03-23T14:27:39;5.20;;;2.80;;
16878;SDS011;8556;52.218;9.884;2024-03-23T14:30:06;4.37;;;2.33;;
16878;SDS011;8556;52.218;9.884;2024-03-23T14:32:33;6.10;;;2.70;;
16878;SDS011;8556;52.218;9.884;2024-03-23T14:35:01;5.83;;;2.63;;
16878;SDS011;8556;52.218;9.884;2024-03-23T14:37:28;2.67;;;1.50;;
16878;SDS011;8556;52.218;9.884;2024-03-23T14:39:55;2.63;;;1.63;;
16878;SDS011;8556;52.218;9.884;2024-03-23T14:42:22;3.73;;;1.30;;
16878;SDS011;8556;52.218;9.884;2024-03-23T14:44:49;3.37;;;1.27;;
16878;SDS011;8556;52.218;9.884;2024-03-23T14:47:16;2.70;;;1.30;;
16878;SDS011;8556;52.218;9.884;2024-03-23T14:49:42;3.27;;;1.13;;
16878;SDS011;8556;52.218;9.884;2024-03-23T14:52:13;2.87;;;1.27;;
16878;SDS011;8556;52.218;9.884;2024-03-23T14:54:39;2.33;;;1.20;;
16878;SDS011;8556;52.218;9.884;2024-03-23T14:57:06;2.57;;;0.90;;
16878;SDS011;8556;52.218;9.884;2024-03-23T14:59:34;0.70;;;0.70;;
16878;SDS011;8556;52.218;9.884;2024-03-23T15:02:00;1.47;;;0.70;;
16878;SDS011;8556;52.218;9.884;2024-03-23T15:04:26;3.17;;;0.67;;
16878;SDS011;8556;52.218;9.884;2024-03-23T15:06:53;2.57;;;0.60;;
16878;SDS011;8556;52.218;9.884;2024-03-23T15:09:21;0.60;;;0.40;;
16878;SDS011;8556;52.218;9.884;2024-03-23T15:11:48;3.40;;;0.87;;
16878;SDS011;8556;52.218;9.884;2024-03-23T15:14:14;1.20;;;1.10;;
16878;SDS011;8556;52.218;9.884;2024-03-23T15:16:43;1.67;;;1.00;;
16878;SDS011;8556;52.218;9.884;2024-03-23T15:19:09;1.47;;;1.37;;
16878;SDS011;8556;52.218;9.884;2024-03-23T15:21:36;4.23;;;1.80;;
16878;SDS011;8556;52.218;9.884;2024-03-23T15:24:02;5.17;;;1.53;;
16878;SDS011;8556;52.218;9.884;2024-03-23T15:26:30;3.37;;;0.87;;
16878;SDS011;8556;52.218;9.884;2024-03-23T15:28:57;1.77;;;0.80;;
16878;SDS011;8556;52.218;9.884;2024-03-23T15:31:36;3.07;;;1.23;;
16878;SDS011;8556;52.218;9.884;2024-03-23T15:34:02;1.93;;;0.90;;
16878;SDS011;8556;52.218;9.884;2024-03-23T15:36:30;1.40;;;0.80;;
16878;SDS011;8556;52.218;9.884;2024-03-23T15:38:56;3.57;;;0.97;;
16878;SDS011;8556;52.218;9.884;2024-03-23T15:41:23;2.87;;;1.50;;
16878;SDS011;8556;52.218;9.884;2024-03-23T15:43:50;6.73;;;1.20;;
16878;SDS011;8556;52.218;9.884;2024-03-23T15:46:18;1.23;;;1.10;;
16878;SDS011;8556;52.218;9.884;2024-03-23T15:48:44;3.00;;;1.47;;
16878;SDS011;8556;52.218;9.884;2024-03-23T15:51:13;2.97;;;1.67;;